Chipolbrok Star — VRGU3 — position and weather

sailwx.info

Track history (hours):
 
Tides and Currents Weather Stations Pressure Air Temp Water Temp Dewpoint Dewpoint Depression Visibility Wind Speed Wind Dir Waves Ship Positions

Chipolbrok Star

Last reported at 2017-Aug-28 06:37 UTC. Time now 2017-Sep-19 15:20 UTC.
Position N 30°45' E 032°19'.
Warning: this ship's position is 22 days out of date.

Length 200 m; draft 8.6 m.

Type: Ship. MMSI: 477748600.

Date/timePositionNaut miles runAvg speedWind from/ knotsBaromVisibWave heightAir tempDewpointWater temp
2017-Aug-28 06:37N 30°45' E 032°19'6 8.1
2017-Aug-28 05:50N 30°51' E 032°19'6 9.3
2017-Aug-28 05:14N 30°57' E 032°19'25 5.0
2017-Aug-28 00:10N 31°22' E 032°20'0 0.1
2017-Aug-27 23:58N 31°22' E 032°20'0 0.0
2017-Aug-27 23:28N 31°22' E 032°20'0 0.0
2017-Aug-27 22:58N 31°22' E 032°20'0 0.0
2017-Aug-27 22:25N 31°22' E 032°20'0 0.0
2017-Aug-27 21:58N 31°22' E 032°20'0 0.0
2017-Aug-27 21:28N 31°22' E 032°20'0 0.0
2017-Aug-27 20:58N 31°22' E 032°20'0 0.0
2017-Aug-27 20:28N 31°22' E 032°20'0 0.0
2017-Aug-27 19:58N 31°22' E 032°20'0 0.0
2017-Aug-27 19:28N 31°22' E 032°20'0 0.0
2017-Aug-27 18:52N 31°22' E 032°20'0 0.0
2017-Aug-27 18:19N 31°22' E 032°20'0 0.0
2017-Aug-27 17:58N 31°22' E 032°20'0 0.0
2017-Aug-27 17:28N 31°22' E 032°20'0 0.0
2017-Aug-27 16:58N 31°22' E 032°20'0 0.0
2017-Aug-27 16:25N 31°22' E 032°20'0 0.0
2017-Aug-27 15:58N 31°22' E 032°20'0 0.2
2017-Aug-27 15:19N 31°22' E 032°20'0 1.4
2017-Aug-27 15:00N 31°22' E 032°21'3 4.8
2017-Aug-27 14:17N 31°26' E 032°19'2 7.4
2017-Aug-27 14:00N 31°27' E 032°18'611.6
2017-Aug-27 13:30N 31°31' E 032°13'713.2
2017-Aug-27 13:00N 31°36' E 032°08'713.2
2017-Aug-27 12:30N 31°41' E 032°02'912.9
2017-Aug-27 11:50N 31°47' E 031°54'413.3
2017-Aug-27 11:30N 31°48' E 031°50'613.0
2017-Aug-27 11:00N 31°51' E 031°43'712.9
2017-Aug-27 10:28N 31°54' E 031°35'612.9
2017-Aug-27 10:00N 31°56' E 031°29'13312.8
2017-Aug-26 23:37N 32°38' E 028°59'57612.0
2017-Aug-24 23:31N 35°30' E 017°56'012.7
2017-Aug-24 23:28N 35°30' E 017°56'712.7
2017-Aug-24 22:56N 35°32' E 017°48'612.8
2017-Aug-24 22:30N 35°34' E 017°41'612.8
2017-Aug-24 22:00N 35°36' E 017°34'6712.6
2017-Aug-24 16:43N 35°56' E 016°15'412.2
2017-Aug-24 16:23N 35°57' E 016°11'612.1
2017-Aug-24 15:52N 35°59' E 016°03'4912.7
2017-Aug-24 12:02N 36°13' E 015°06'513.4
2017-Aug-24 11:39N 36°15' E 014°59'313.3
2017-Aug-24 11:27N 36°15' E 014°56'613.3
2017-Aug-24 11:00N 36°17' E 014°50'713.2
2017-Aug-24 10:30N 36°19' E 014°42'713.3
2017-Aug-24 09:59N 36°21' E 014°34'613.2
2017-Aug-24 09:30N 36°23' E 014°26'613.0
2017-Aug-24 09:00N 36°25' E 014°18'612.9
2017-Aug-24 08:30N 36°27' E 014°11'713.0
2017-Aug-24 08:00N 36°29' E 014°03'713.1
2017-Aug-24 07:30N 36°31' E 013°55'713.0
2017-Aug-24 07:00N 36°33' E 013°47'612.9
2017-Aug-24 06:30N 36°35' E 013°40'712.9
2017-Aug-24 06:00N 36°37' E 013°32'612.9
2017-Aug-24 05:30N 36°39' E 013°24'713.0
2017-Aug-24 05:00N 36°41' E 013°17'713.0
2017-Aug-24 04:30N 36°43' E 013°09'812.7
2017-Aug-24 03:54N 36°45' E 012°60'512.6
2017-Aug-24 03:29N 36°47' E 012°54'612.5
2017-Aug-24 03:00N 36°48' E 012°47'712.5
2017-Aug-24 02:27N 36°50' E 012°38'612.4
2017-Aug-24 01:56N 36°53' E 012°31'512.3
2017-Aug-24 01:30N 36°54' E 012°24'612.1
2017-Aug-24 01:00N 36°56' E 012°17'712.2
2017-Aug-24 00:27N 36°58' E 012°09'712.5
2017-Aug-23 23:53N 36°60' E 012°00'512.6
2017-Aug-23 23:30N 37°02' E 011°55'712.6
2017-Aug-23 22:59N 37°05' E 011°48'4812.2
2017-Aug-23 19:04N 37°27' E 010°54'112.0
2017-Aug-23 19:00N 37°27' E 010°53'6112.3
2017-Aug-23 14:01N 37°30' E 009°36'1013.0
2017-Aug-23 13:17N 37°28' E 009°24'412.9
2017-Aug-23 13:00N 37°27' E 009°20'1512.8
2017-Aug-23 11:49N 37°25' E 009°01'512.7
2017-Aug-23 11:26N 37°24' E 008°55'5012.4
2017-Aug-23 07:26N 37°19' E 007°53'1512.5
2017-Aug-23 06:15N 37°19' E 007°34'4113.2
2017-Aug-23 03:08N 37°17' E 006°42'213.4
2017-Aug-23 03:00N 37°17' E 006°40'713.5
2017-Aug-23 02:30N 37°16' E 006°32'813.5
2017-Aug-23 01:55N 37°16' E 006°22'1812.7
2017-Aug-23 00:31N 37°15' E 005°60'012.7
2017-Aug-23 00:30N 37°15' E 005°59'6912.7
2017-Aug-22 19:02N 37°11' E 004°33'112.9
2017-Aug-22 18:59N 37°11' E 004°32'612.7
2017-Aug-22 18:30N 37°11' E 004°24'612.7
2017-Aug-22 18:00N 37°11' E 004°16'612.8
2017-Aug-22 17:30N 37°10' E 004°08'16912.4
2017-Aug-22 03:55N 36°44' E 000°40'1012.8
2017-Aug-22 03:09N 36°42' E 000°28'412.4
2017-Aug-22 02:51N 36°41' E 000°23'412.4
2017-Aug-22 02:29N 36°40' E 000°18'612.2
2017-Aug-22 01:59N 36°38' E 000°10'712.2
2017-Aug-22 01:23N 36°37' E 000°01'2012.1
2017-Aug-21 23:45N 36°32' W 000°22'412.3
2017-Aug-21 23:26N 36°31' W 000°27'512.3
2017-Aug-21 23:00N 36°30' W 000°34'612.2
2017-Aug-21 22:30N 36°29' W 000°41'912.1
2017-Aug-21 21:45N 36°27' W 000°52'412.1
2017-Aug-21 21:23N 36°26' W 000°58'812.2
2017-Aug-21 20:45N 36°25' W 001°07'412.2
2017-Aug-21 20:26N 36°24' W 001°12'512.2
2017-Aug-21 19:59N 36°22' W 001°18'612.2
2017-Aug-21 19:30N 36°21' W 001°25'611.9
2017-Aug-21 19:00N 36°20' W 001°33'1212.3
2017-Aug-21 18:02N 36°17' W 001°47'112.5
2017-Aug-21 17:57N 36°17' W 001°48'1212.4
2017-Aug-21 16:57N 36°15' W 002°03'15212.9
2017-Aug-21 05:12N 36°00' W 005°10'313.5
2017-Aug-21 05:00N 36°00' W 005°14'613.1
2017-Aug-21 04:30N 35°59' W 005°21'713.2
2017-Aug-21 04:00N 35°57' W 005°29'712.8
2017-Aug-21 03:28N 35°55' W 005°37'713.9
2017-Aug-21 02:57N 35°54' W 005°46'612.4
2017-Aug-21 02:30N 35°54' W 005°53'18911.9
2017-Aug-20 10:39N 36°56' W 009°36'1113.1
2017-Aug-20 09:48N 37°06' W 009°39'413.3
2017-Aug-20 09:30N 37°10' W 009°40'713.4
2017-Aug-20 09:00N 37°17' W 009°41'713.1
2017-Aug-20 08:30N 37°23' W 009°43'713.4
2017-Aug-20 08:00N 37°30' W 009°45'713.3
2017-Aug-20 07:31N 37°36' W 009°47'713.2
2017-Aug-20 07:01N 37°42' W 009°49'612.7
2017-Aug-20 06:30N 37°49' W 009°51'612.7
2017-Aug-20 06:00N 37°55' W 009°53'612.9
2017-Aug-20 05:30N 38°01' W 009°54'613.0
2017-Aug-20 05:01N 38°07' W 009°56'612.8
2017-Aug-20 04:31N 38°14' W 009°58'612.8
2017-Aug-20 04:01N 38°20' W 009°60'713.1
2017-Aug-20 03:30N 38°26' W 010°02'713.1
2017-Aug-20 03:00N 38°33' W 010°03'713.1
2017-Aug-20 02:31N 38°39' W 010°05'612.9
2017-Aug-20 02:01N 38°45' W 010°06'713.1
2017-Aug-20 01:31N 38°52' W 010°06'612.9
2017-Aug-20 01:01N 38°58' W 010°06'612.6
2017-Aug-20 00:30N 39°05' W 010°06'613.1
2017-Aug-20 00:00N 39°11' W 010°06'713.3
2017-Aug-19 23:30N 39°18' W 010°06'713.6
2017-Aug-19 23:00N 39°25' W 010°06'713.5
2017-Aug-19 22:30N 39°31' W 010°06'713.6
2017-Aug-19 22:00N 39°38' W 010°06'713.8
2017-Aug-19 21:30N 39°45' W 010°06'713.7
2017-Aug-19 21:00N 39°52' W 010°06'713.4
2017-Aug-19 20:30N 39°59' W 010°06'713.7
2017-Aug-19 20:00N 40°06' W 010°06'713.5
2017-Aug-19 19:30N 40°12' W 010°06'713.4
2017-Aug-19 19:00N 40°19' W 010°06'713.8
2017-Aug-19 18:30N 40°26' W 010°06'713.9
2017-Aug-19 18:00N 40°33' W 010°06'714.0
2017-Aug-19 17:30N 40°40' W 010°06'713.9
2017-Aug-19 17:00N 40°47' W 010°06'713.9
2017-Aug-19 16:30N 40°54' W 010°06'1313.5
2017-Aug-19 15:34N 41°06' W 010°06'113.4
2017-Aug-19 15:30N 41°07' W 010°06'  
Track history (hours):
 
Tides and Currents Weather Stations Pressure Air Temp Water Temp Dewpoint Dewpoint Depression Visibility Wind Speed Wind Dir Waves Ship Positions

Chipolbrok Star

Last reported at 2017-Aug-28 06:37 UTC. Time now 2017-Sep-19 15:20 UTC.
Position N 30°45' E 032°19'.
Warning: this ship's position is 22 days out of date.

Length 200 m; draft 8.6 m.

Type: Ship. MMSI: 477748600.

Date/timePositionNaut miles runAvg speedWind from/ knotsBaromVisibWave heightAir tempDewpointWater temp
2017-Aug-28 06:37N 30°45' E 032°19'6 8.1
2017-Aug-28 05:50N 30°51' E 032°19'6 9.3
2017-Aug-28 05:14N 30°57' E 032°19'25 5.0
2017-Aug-28 00:10N 31°22' E 032°20'0 0.1
2017-Aug-27 23:58N 31°22' E 032°20'0 0.0
2017-Aug-27 23:28N 31°22' E 032°20'0 0.0
2017-Aug-27 22:58N 31°22' E 032°20'0 0.0
2017-Aug-27 22:25N 31°22' E 032°20'0 0.0
2017-Aug-27 21:58N 31°22' E 032°20'0 0.0
2017-Aug-27 21:28N 31°22' E 032°20'0 0.0
2017-Aug-27 20:58N 31°22' E 032°20'0 0.0
2017-Aug-27 20:28N 31°22' E 032°20'0 0.0
2017-Aug-27 19:58N 31°22' E 032°20'0 0.0
2017-Aug-27 19:28N 31°22' E 032°20'0 0.0
2017-Aug-27 18:52N 31°22' E 032°20'0 0.0
2017-Aug-27 18:19N 31°22' E 032°20'0 0.0
2017-Aug-27 17:58N 31°22' E 032°20'0 0.0
2017-Aug-27 17:28N 31°22' E 032°20'0 0.0
2017-Aug-27 16:58N 31°22' E 032°20'0 0.0
2017-Aug-27 16:25N 31°22' E 032°20'0 0.0
2017-Aug-27 15:58N 31°22' E 032°20'0 0.2
2017-Aug-27 15:19N 31°22' E 032°20'0 1.4
2017-Aug-27 15:00N 31°22' E 032°21'3 4.8
2017-Aug-27 14:17N 31°26' E 032°19'2 7.4
2017-Aug-27 14:00N 31°27' E 032°18'611.6
2017-Aug-27 13:30N 31°31' E 032°13'713.2
2017-Aug-27 13:00N 31°36' E 032°08'713.2
2017-Aug-27 12:30N 31°41' E 032°02'912.9
2017-Aug-27 11:50N 31°47' E 031°54'413.3
2017-Aug-27 11:30N 31°48' E 031°50'613.0
2017-Aug-27 11:00N 31°51' E 031°43'712.9
2017-Aug-27 10:28N 31°54' E 031°35'612.9
2017-Aug-27 10:00N 31°56' E 031°29'13312.8
2017-Aug-26 23:37N 32°38' E 028°59'57612.0
2017-Aug-24 23:31N 35°30' E 017°56'012.7
2017-Aug-24 23:28N 35°30' E 017°56'712.7
2017-Aug-24 22:56N 35°32' E 017°48'612.8
2017-Aug-24 22:30N 35°34' E 017°41'612.8
2017-Aug-24 22:00N 35°36' E 017°34'6712.6
2017-Aug-24 16:43N 35°56' E 016°15'412.2
2017-Aug-24 16:23N 35°57' E 016°11'612.1
2017-Aug-24 15:52N 35°59' E 016°03'4912.7
2017-Aug-24 12:02N 36°13' E 015°06'513.4
2017-Aug-24 11:39N 36°15' E 014°59'313.3
2017-Aug-24 11:27N 36°15' E 014°56'613.3
2017-Aug-24 11:00N 36°17' E 014°50'713.2
2017-Aug-24 10:30N 36°19' E 014°42'713.3
2017-Aug-24 09:59N 36°21' E 014°34'613.2
2017-Aug-24 09:30N 36°23' E 014°26'613.0
2017-Aug-24 09:00N 36°25' E 014°18'612.9
2017-Aug-24 08:30N 36°27' E 014°11'713.0
2017-Aug-24 08:00N 36°29' E 014°03'713.1
2017-Aug-24 07:30N 36°31' E 013°55'713.0
2017-Aug-24 07:00N 36°33' E 013°47'612.9
2017-Aug-24 06:30N 36°35' E 013°40'712.9
2017-Aug-24 06:00N 36°37' E 013°32'612.9
2017-Aug-24 05:30N 36°39' E 013°24'713.0
2017-Aug-24 05:00N 36°41' E 013°17'713.0
2017-Aug-24 04:30N 36°43' E 013°09'812.7
2017-Aug-24 03:54N 36°45' E 012°60'512.6
2017-Aug-24 03:29N 36°47' E 012°54'612.5
2017-Aug-24 03:00N 36°48' E 012°47'712.5
2017-Aug-24 02:27N 36°50' E 012°38'612.4
2017-Aug-24 01:56N 36°53' E 012°31'512.3
2017-Aug-24 01:30N 36°54' E 012°24'612.1
2017-Aug-24 01:00N 36°56' E 012°17'712.2
2017-Aug-24 00:27N 36°58' E 012°09'712.5
2017-Aug-23 23:53N 36°60' E 012°00'512.6
2017-Aug-23 23:30N 37°02' E 011°55'712.6
2017-Aug-23 22:59N 37°05' E 011°48'4812.2
2017-Aug-23 19:04N 37°27' E 010°54'112.0
2017-Aug-23 19:00N 37°27' E 010°53'6112.3
2017-Aug-23 14:01N 37°30' E 009°36'1013.0
2017-Aug-23 13:17N 37°28' E 009°24'412.9
2017-Aug-23 13:00N 37°27' E 009°20'1512.8
2017-Aug-23 11:49N 37°25' E 009°01'512.7
2017-Aug-23 11:26N 37°24' E 008°55'5012.4
2017-Aug-23 07:26N 37°19' E 007°53'1512.5
2017-Aug-23 06:15N 37°19' E 007°34'4113.2
2017-Aug-23 03:08N 37°17' E 006°42'213.4
2017-Aug-23 03:00N 37°17' E 006°40'713.5
2017-Aug-23 02:30N 37°16' E 006°32'813.5
2017-Aug-23 01:55N 37°16' E 006°22'1812.7
2017-Aug-23 00:31N 37°15' E 005°60'012.7
2017-Aug-23 00:30N 37°15' E 005°59'6912.7
2017-Aug-22 19:02N 37°11' E 004°33'112.9
2017-Aug-22 18:59N 37°11' E 004°32'612.7
2017-Aug-22 18:30N 37°11' E 004°24'612.7
2017-Aug-22 18:00N 37°11' E 004°16'612.8
2017-Aug-22 17:30N 37°10' E 004°08'16912.4
2017-Aug-22 03:55N 36°44' E 000°40'1012.8
2017-Aug-22 03:09N 36°42' E 000°28'412.4
2017-Aug-22 02:51N 36°41' E 000°23'412.4
2017-Aug-22 02:29N 36°40' E 000°18'612.2
2017-Aug-22 01:59N 36°38' E 000°10'712.2
2017-Aug-22 01:23N 36°37' E 000°01'2012.1
2017-Aug-21 23:45N 36°32' W 000°22'412.3
2017-Aug-21 23:26N 36°31' W 000°27'512.3
2017-Aug-21 23:00N 36°30' W 000°34'612.2
2017-Aug-21 22:30N 36°29' W 000°41'912.1
2017-Aug-21 21:45N 36°27' W 000°52'412.1
2017-Aug-21 21:23N 36°26' W 000°58'812.2
2017-Aug-21 20:45N 36°25' W 001°07'412.2
2017-Aug-21 20:26N 36°24' W 001°12'512.2
2017-Aug-21 19:59N 36°22' W 001°18'612.2
2017-Aug-21 19:30N 36°21' W 001°25'611.9
2017-Aug-21 19:00N 36°20' W 001°33'1212.3
2017-Aug-21 18:02N 36°17' W 001°47'112.5
2017-Aug-21 17:57N 36°17' W 001°48'1212.4
2017-Aug-21 16:57N 36°15' W 002°03'15212.9
2017-Aug-21 05:12N 36°00' W 005°10'313.5
2017-Aug-21 05:00N 36°00' W 005°14'613.1
2017-Aug-21 04:30N 35°59' W 005°21'713.2
2017-Aug-21 04:00N 35°57' W 005°29'712.8
2017-Aug-21 03:28N 35°55' W 005°37'713.9
2017-Aug-21 02:57N 35°54' W 005°46'612.4
2017-Aug-21 02:30N 35°54' W 005°53'18911.9
2017-Aug-20 10:39N 36°56' W 009°36'1113.1
2017-Aug-20 09:48N 37°06' W 009°39'413.3
2017-Aug-20 09:30N 37°10' W 009°40'713.4
2017-Aug-20 09:00N 37°17' W 009°41'713.1
2017-Aug-20 08:30N 37°23' W 009°43'713.4
2017-Aug-20 08:00N 37°30' W 009°45'713.3
2017-Aug-20 07:31N 37°36' W 009°47'713.2
2017-Aug-20 07:01N 37°42' W 009°49'612.7
2017-Aug-20 06:30N 37°49' W 009°51'612.7
2017-Aug-20 06:00N 37°55' W 009°53'612.9
2017-Aug-20 05:30N 38°01' W 009°54'613.0
2017-Aug-20 05:01N 38°07' W 009°56'612.8
2017-Aug-20 04:31N 38°14' W 009°58'612.8
2017-Aug-20 04:01N 38°20' W 009°60'713.1
2017-Aug-20 03:30N 38°26' W 010°02'713.1
2017-Aug-20 03:00N 38°33' W 010°03'713.1
2017-Aug-20 02:31N 38°39' W 010°05'612.9
2017-Aug-20 02:01N 38°45' W 010°06'713.1
2017-Aug-20 01:31N 38°52' W 010°06'612.9
2017-Aug-20 01:01N 38°58' W 010°06'612.6
2017-Aug-20 00:30N 39°05' W 010°06'613.1
2017-Aug-20 00:00N 39°11' W 010°06'713.3
2017-Aug-19 23:30N 39°18' W 010°06'713.6
2017-Aug-19 23:00N 39°25' W 010°06'713.5
2017-Aug-19 22:30N 39°31' W 010°06'713.6
2017-Aug-19 22:00N 39°38' W 010°06'713.8
2017-Aug-19 21:30N 39°45' W 010°06'713.7
2017-Aug-19 21:00N 39°52' W 010°06'713.4
2017-Aug-19 20:30N 39°59' W 010°06'713.7
2017-Aug-19 20:00N 40°06' W 010°06'713.5
2017-Aug-19 19:30N 40°12' W 010°06'713.4
2017-Aug-19 19:00N 40°19' W 010°06'713.8
2017-Aug-19 18:30N 40°26' W 010°06'713.9
2017-Aug-19 18:00N 40°33' W 010°06'714.0
2017-Aug-19 17:30N 40°40' W 010°06'713.9
2017-Aug-19 17:00N 40°47' W 010°06'713.9
2017-Aug-19 16:30N 40°54' W 010°06'1313.5
2017-Aug-19 15:34N 41°06' W 010°06'113.4
2017-Aug-19 15:30N 41°07' W 010°06'  

Dump ship's entire track history